Aeroporto :
LOGIN :

Iscrizione | Disclaimer

   EN    FR    IT 

 










Sommario :    VFR   VFR Marginale   IFR   IFR Intensivo   IFR Molto Intensivo
Visibilità : 
Base nubi : 
>= 8 km
>= 3000ft
5 / 8 km
1000 / 3000 ft
1500m / 5 km
500 / 1000 ft
800 / 1500m
200 / 500 ft
< 800m
< 200 ft
Simboli :   Temporali  Nebbia  Neve Forte  Precipitazioni Forti  Vento > 20 kt
SIGMETs :   Varie  Temporali  Ghiacco  Turbolenza  Onda orograficha  Ceneri Vulcaniche







- Altitudine del aeroporto : 101 ft
- Codice IATA : GLO
- Carte del aeroporto


EGBJ - Gloucestershire

ULTIMO METAR :
  • 181050Z 18019KT 9000 -RA FEW010 10/06 Q1004

METARs OBSOLETI :
  • 181020Z 16018G29KT 120V200 9999 VCSH FEW010 10/07 Q1005
  • 180950Z 17022G32KT 9999 VCSH SCT012 10/07 Q1005
  • 180920Z 16020KT 9999 -RA SCT011 10/07 Q1005
  • 180850Z 17022G32KT 9999 VCSH SCT011 11/07 Q1006
  • 180820Z 17017G29KT 130V200 9999 SCT011 BKN040 11/08 Q1006

TAF TAF EGBJ
Valido dal 18 a 12 ore il 18 a 20 ore UTC


181105Z 1812/1820 17018G30KT 9999 SCT012
TEMPO 1812/1820 7000 RA BKN012
PROB40
TEMPO 1813/1818 4000 +RA
BECMG 1815/1818 22009KT
Nessun NOTAM noto per questo aeroporto.
5 SIGMETs conosciuti per la FIR London (EGTT) :
 
Turbolenza severa
EGTT SIGMET 07 VALID 181100/181500 EGRR
EGTT LONDON FIR SEV TURB FCST WI N5100 W00800 - N5117 W00728 - N4932 W00752 - N4932 W00800 - N5100 W00800 FL220/350 MOV E 10KT WKN=
Turbolenza severa
EGTT SIGMET 06 VALID 181100/181500 EGRR
EGTT LONDON FIR SEV TURB FCST WI N5000 W00200 - N4919 W00530 - N5500 W00530 - N5500 E00100 - N5000 W00017 - N5000 W00200 SFC/FL060 MOV E 10KT WKN=
Forte onda orograficha
EGTT SIGMET 05 VALID 181100/181500 EGRR
EGTT LONDON FIR SEV MTW FCST WI N5220 W00530 - N5500 W00530 - N5500 W00015 - N5024 W00255 - N4959 W00548 - N5220 W00530 - N5220 W00530 FL030/250 STNR NC=
Forte onda orograficha
EGTT SIGMET 04 VALID 180700/181100 EGRR
EGTT LONDON FIR SEV MTW FCST WI N5220 W00530 - N5500 W00530 - N5500 W00015 - N5024 W00255 - N4959 W00548 - N5220 W00530 - N5220 W00530 FL030/250 STNR NC=
Turbolenza severa
EGTT SIGMET 03 VALID 180700/181100 EGRR
EGTT LONDON FIR SEV TURB FCST WI N4850 W00800 - N5100 W00800 - N5220 W00530 - N5500 W00530 - N5500 W00247 - N5101 W00311 - N4958 W00208 - N4850 W00800 SFC/FL060 MOV E 10KT NC=



MetMap, La meteo Aeronautica in un colpo d'occhio ! - Copyright ORBIFLY Dicembre 2007 - Disclaimer

ORBIFLY MET'MAP TEAM :

Programmazione e sviluppo : Alexandra Zaïnal
Concezione e sviluppo : Baudouin d'Aumeries
Co-Programmazione e sviluppo : Marc-Olivier Méhu
Supporto tecnico e logistico : Manuel Goepfert
Aiuto per la traduzione : Arnaldo La Scala

Contatto : metmap@orbifly.com




FONTI E CREDITI :

   NOAA